DAL1594 MPTO-SKBO
Flight info
| Callsign | DAL1594 |
|---|---|
| Flight time | 1h 4m |
| Altitude | 37000 |
| Route | REMAL MUBMI UP527 UIB ARMUM TIRTO TIRT5E |
| Aircraft | B738/M-VGDW/C |
Departure
| Time | 2026-04-30 13:02 |
|---|---|
| Airport | Tocumen International Airport (MPTO) |
Arrival
| Time | 2026-04-30 14:07 |
|---|---|
| Airport | El Dorado International Airport (SKBO) |
| Time | Latitude | Longitude | Altitude | Speed | Heading |
|---|---|---|---|---|---|
| 2026-04-30 12:53 | 9.06757 | -79.38488 | 49 ft | 0 kts | 328° |
| 2026-04-30 12:56 | 9.06748 | -79.38483 | 49 ft | 2 kts | 328° |
| 2026-04-30 12:56 | 9.06734 | -79.38474 | 45 ft | 2 kts | 328° |
| 2026-04-30 12:56 | 9.06720 | -79.38465 | 46 ft | 2 kts | 328° |
| 2026-04-30 12:57 | 9.06706 | -79.38457 | 43 ft | 2 kts | 328° |
| 2026-04-30 12:57 | 9.06691 | -79.38449 | 43 ft | 2 kts | 12° |
| 2026-04-30 12:57 | 9.06701 | -79.38443 | 42 ft | 2 kts | 28° |
| 2026-04-30 12:57 | 9.06703 | -79.38442 | 43 ft | 0 kts | 28° |
| 2026-04-30 12:58 | 9.06711 | -79.38438 | 44 ft | 4 kts | 28° |
| 2026-04-30 12:59 | 9.06750 | -79.38417 | 46 ft | 8 kts | 30° |
| 2026-04-30 12:59 | 9.06800 | -79.38386 | 47 ft | 8 kts | 31° |
| 2026-04-30 12:59 | 9.06846 | -79.38351 | 46 ft | 9 kts | 44° |
| 2026-04-30 12:59 | 9.06892 | -79.38282 | 45 ft | 16 kts | 58° |
| 2026-04-30 13:00 | 9.06986 | -79.38187 | 44 ft | 21 kts | 30° |
| 2026-04-30 13:00 | 9.07108 | -79.38116 | 45 ft | 20 kts | 30° |
| 2026-04-30 13:00 | 9.07204 | -79.38051 | 44 ft | 14 kts | 60° |
| 2026-04-30 13:00 | 9.07174 | -79.37963 | 43 ft | 14 kts | 121° |
| 2026-04-30 13:01 | 9.07114 | -79.37927 | 43 ft | 9 kts | 185° |
| 2026-04-30 13:01 | 9.07056 | -79.37957 | 42 ft | 12 kts | 210° |
| 2026-04-30 13:01 | 9.06829 | -79.38088 | 42 ft | 75 kts | 210° |
| 2026-04-30 13:01 | 9.06158 | -79.38468 | 44 ft | 144 kts | 209° |
| 2026-04-30 13:02 | 9.05150 | -79.39049 | 331 ft | 177 kts | 212° |
| 2026-04-30 13:02 | 9.04039 | -79.39630 | 1130 ft | 180 kts | 205° |
| 2026-04-30 13:02 | 9.02849 | -79.40097 | 1843 ft | 187 kts | 189° |
| 2026-04-30 13:02 | 9.01558 | -79.39872 | 2359 ft | 203 kts | 144° |
| 2026-04-30 13:03 | 9.00687 | -79.38699 | 2628 ft | 221 kts | 101° |
| 2026-04-30 13:03 | 9.00819 | -79.37130 | 2894 ft | 233 kts | 61° |
| 2026-04-30 13:03 | 9.01529 | -79.35573 | 3143 ft | 257 kts | 76° |
| 2026-04-30 13:03 | 9.01781 | -79.33733 | 3798 ft | 266 kts | 82° |
| 2026-04-30 13:04 | 9.01969 | -79.31883 | 4775 ft | 264 kts | 83° |
| 2026-04-30 13:04 | 9.02138 | -79.30031 | 5469 ft | 272 kts | 84° |
| 2026-04-30 13:04 | 9.02266 | -79.28128 | 6364 ft | 273 kts | 91° |
| 2026-04-30 13:04 | 9.01678 | -79.26288 | 7013 ft | 283 kts | 125° |
| 2026-04-30 13:05 | 9.00247 | -79.24932 | 7823 ft | 284 kts | 142° |
| 2026-04-30 13:05 | 8.98611 | -79.23791 | 8608 ft | 287 kts | 145° |
| 2026-04-30 13:05 | 8.96924 | -79.22683 | 9364 ft | 290 kts | 146° |
| 2026-04-30 13:06 | 8.93461 | -79.20430 | 10407 ft | 312 kts | 146° |
| 2026-04-30 13:06 | 8.91569 | -79.19189 | 10549 ft | 334 kts | 146° |
| 2026-04-30 13:06 | 8.89578 | -79.17876 | 10914 ft | 346 kts | 146° |
| 2026-04-30 13:06 | 8.87540 | -79.16525 | 11461 ft | 351 kts | 146° |
| 2026-04-30 13:07 | 8.85504 | -79.15171 | 12192 ft | 352 kts | 146° |
| 2026-04-30 13:07 | 8.83444 | -79.13800 | 12760 ft | 357 kts | 146° |
| 2026-04-30 13:07 | 8.81364 | -79.12412 | 13375 ft | 359 kts | 146° |
| 2026-04-30 13:07 | 8.79276 | -79.11018 | 13978 ft | 361 kts | 147° |
| 2026-04-30 13:08 | 8.77196 | -79.09629 | 14505 ft | 364 kts | 147° |
| 2026-04-30 13:08 | 8.75046 | -79.08192 | 15029 ft | 368 kts | 147° |
| 2026-04-30 13:08 | 8.72931 | -79.06779 | 15539 ft | 371 kts | 147° |
| 2026-04-30 13:08 | 8.70761 | -79.05329 | 16058 ft | 375 kts | 147° |
| 2026-04-30 13:09 | 8.68579 | -79.03870 | 16570 ft | 378 kts | 147° |
| 2026-04-30 13:09 | 8.66374 | -79.02397 | 17079 ft | 381 kts | 147° |
| 2026-04-30 13:09 | 8.64149 | -79.00910 | 17581 ft | 384 kts | 147° |
| 2026-04-30 13:09 | 8.61914 | -78.99417 | 18075 ft | 388 kts | 147° |
| 2026-04-30 13:10 | 8.59646 | -78.97902 | 18499 ft | 391 kts | 147° |
| 2026-04-30 13:10 | 8.57361 | -78.96376 | 18901 ft | 395 kts | 147° |
| 2026-04-30 13:10 | 8.55062 | -78.94841 | 19299 ft | 398 kts | 147° |
| 2026-04-30 13:10 | 8.52766 | -78.93308 | 19681 ft | 402 kts | 147° |
| 2026-04-30 13:11 | 8.50421 | -78.91742 | 20068 ft | 405 kts | 147° |
| 2026-04-30 13:11 | 8.48061 | -78.90167 | 20459 ft | 408 kts | 147° |
| 2026-04-30 13:11 | 8.45676 | -78.88575 | 20854 ft | 411 kts | 148° |
| 2026-04-30 13:11 | 8.43279 | -78.86975 | 21233 ft | 415 kts | 148° |
| 2026-04-30 13:12 | 8.40864 | -78.85364 | 21603 ft | 418 kts | 148° |
| 2026-04-30 13:12 | 8.38430 | -78.83740 | 21969 ft | 421 kts | 148° |
| 2026-04-30 13:12 | 8.35976 | -78.82103 | 22334 ft | 424 kts | 148° |
| 2026-04-30 13:13 | 8.31014 | -78.78794 | 23026 ft | 430 kts | 148° |
| 2026-04-30 13:13 | 8.28511 | -78.77125 | 23367 ft | 433 kts | 148° |
| 2026-04-30 13:13 | 8.23494 | -78.73781 | 23979 ft | 436 kts | 148° |
| 2026-04-30 13:14 | 8.20963 | -78.72094 | 24337 ft | 436 kts | 148° |
| 2026-04-30 13:14 | 8.18430 | -78.70406 | 24655 ft | 437 kts | 148° |
| 2026-04-30 13:14 | 8.13326 | -78.67006 | 25251 ft | 441 kts | 148° |
| 2026-04-30 13:15 | 8.10766 | -78.65301 | 25544 ft | 442 kts | 148° |
| 2026-04-30 13:15 | 8.05613 | -78.61869 | 26127 ft | 445 kts | 148° |
| 2026-04-30 13:15 | 8.03026 | -78.60148 | 26423 ft | 446 kts | 148° |
| 2026-04-30 13:16 | 8.00433 | -78.58421 | 26696 ft | 447 kts | 148° |
| 2026-04-30 13:16 | 7.97824 | -78.56685 | 26963 ft | 449 kts | 148° |
| 2026-04-30 13:16 | 7.95210 | -78.54946 | 27232 ft | 450 kts | 148° |
| 2026-04-30 13:17 | 7.89963 | -78.51455 | 27752 ft | 453 kts | 148° |
| 2026-04-30 13:17 | 7.87325 | -78.49701 | 27999 ft | 455 kts | 148° |
| 2026-04-30 13:17 | 7.82914 | -78.46768 | 28408 ft | 457 kts | 148° |
| 2026-04-30 13:18 | 7.79387 | -78.44423 | 28710 ft | 459 kts | 148° |
| 2026-04-30 13:18 | 7.74037 | -78.40867 | 29152 ft | 462 kts | 148° |
| 2026-04-30 13:18 | 7.71343 | -78.39077 | 29375 ft | 464 kts | 148° |
| 2026-04-30 13:19 | 7.68645 | -78.37285 | 29576 ft | 465 kts | 148° |
| 2026-04-30 13:19 | 7.65965 | -78.35504 | 29783 ft | 467 kts | 148° |
| 2026-04-30 13:19 | 7.63216 | -78.33679 | 29969 ft | 468 kts | 148° |
| 2026-04-30 13:19 | 7.60494 | -78.31871 | 30162 ft | 469 kts | 148° |
| 2026-04-30 13:20 | 7.57769 | -78.30061 | 30386 ft | 469 kts | 149° |
| 2026-04-30 13:20 | 7.55083 | -78.28278 | 30631 ft | 468 kts | 149° |
| 2026-04-30 13:20 | 7.52359 | -78.26470 | 30865 ft | 468 kts | 149° |
| 2026-04-30 13:20 | 7.49636 | -78.24662 | 31077 ft | 469 kts | 149° |
| 2026-04-30 13:21 | 7.46908 | -78.22852 | 31299 ft | 469 kts | 149° |
| 2026-04-30 13:21 | 7.44182 | -78.21043 | 31544 ft | 469 kts | 149° |
| 2026-04-30 13:21 | 7.41460 | -78.19238 | 31799 ft | 468 kts | 149° |
| 2026-04-30 13:22 | 7.36013 | -78.15625 | 32249 ft | 469 kts | 149° |
| 2026-04-30 13:22 | 7.33286 | -78.13817 | 32496 ft | 469 kts | 149° |
| 2026-04-30 13:22 | 7.27875 | -78.10229 | 33009 ft | 468 kts | 150° |
| 2026-04-30 13:23 | 7.25118 | -78.08402 | 33257 ft | 468 kts | 150° |
| 2026-04-30 13:23 | 7.19716 | -78.04821 | 33793 ft | 467 kts | 150° |
| 2026-04-30 13:24 | 7.14284 | -78.01222 | 34214 ft | 467 kts | 150° |
| 2026-04-30 13:24 | 7.09010 | -77.97378 | 34624 ft | 471 kts | 141° |
| 2026-04-30 13:25 | 7.04249 | -77.92838 | 35038 ft | 472 kts | 139° |
| 2026-04-30 13:25 | 7.00326 | -77.89003 | 35379 ft | 472 kts | 140° |
| 2026-04-30 13:26 | 6.93234 | -77.82156 | 35949 ft | 471 kts | 140° |
| 2026-04-30 13:26 | 6.87697 | -77.76866 | 36400 ft | 471 kts | 140° |
| 2026-04-30 13:27 | 6.83727 | -77.73079 | 36700 ft | 471 kts | 140° |
| 2026-04-30 13:28 | 6.76581 | -77.66264 | 36884 ft | 474 kts | 140° |
| 2026-04-30 13:28 | 6.69407 | -77.59419 | 36881 ft | 469 kts | 140° |
| 2026-04-30 13:29 | 6.60004 | -77.50453 | 36893 ft | 464 kts | 140° |
| 2026-04-30 13:31 | 6.48285 | -77.39289 | 36883 ft | 466 kts | 140° |
| 2026-04-30 13:32 | 6.36441 | -77.28013 | 36870 ft | 472 kts | 140° |
| 2026-04-30 13:33 | 6.26877 | -77.18911 | 36875 ft | 477 kts | 140° |
| 2026-04-30 13:34 | 6.19604 | -77.11994 | 36891 ft | 479 kts | 140° |
| 2026-04-30 13:35 | 6.09927 | -77.02793 | 36925 ft | 479 kts | 140° |
| 2026-04-30 13:36 | 6.00298 | -76.93642 | 36928 ft | 476 kts | 140° |
| 2026-04-30 13:36 | 5.93082 | -76.86787 | 36928 ft | 474 kts | 140° |
| 2026-04-30 13:37 | 5.85897 | -76.79966 | 36887 ft | 473 kts | 140° |
| 2026-04-30 13:38 | 5.78725 | -76.73158 | 36845 ft | 472 kts | 140° |
| 2026-04-30 13:39 | 5.69408 | -76.63892 | 36827 ft | 477 kts | 130° |
| 2026-04-30 13:39 | 5.66116 | -76.58069 | 36838 ft | 483 kts | 118° |
| 2026-04-30 13:40 | 5.64685 | -76.55008 | 36834 ft | 484 kts | 117° |
| 2026-04-30 13:40 | 5.61821 | -76.48892 | 36874 ft | 485 kts | 118° |
| 2026-04-30 13:41 | 5.58884 | -76.42782 | 36913 ft | 486 kts | 118° |
| 2026-04-30 13:41 | 5.55921 | -76.36679 | 36958 ft | 487 kts | 118° |
| 2026-04-30 13:42 | 5.52951 | -76.30557 | 37006 ft | 487 kts | 118° |
| 2026-04-30 13:42 | 5.48523 | -76.21401 | 37026 ft | 489 kts | 118° |
| 2026-04-30 13:43 | 5.45561 | -76.15267 | 37036 ft | 488 kts | 118° |
| 2026-04-30 13:43 | 5.42598 | -76.09136 | 37052 ft | 487 kts | 118° |
| 2026-04-30 13:44 | 5.39638 | -76.03013 | 37056 ft | 488 kts | 118° |
| 2026-04-30 13:44 | 5.36663 | -75.96861 | 36449 ft | 490 kts | 118° |
| 2026-04-30 13:45 | 5.33726 | -75.90787 | 35670 ft | 479 kts | 118° |
| 2026-04-30 13:45 | 5.32277 | -75.87793 | 35287 ft | 477 kts | 118° |
| 2026-04-30 13:45 | 5.30824 | -75.84791 | 34945 ft | 480 kts | 118° |
| 2026-04-30 13:46 | 5.29356 | -75.81762 | 34586 ft | 484 kts | 118° |
| 2026-04-30 13:46 | 5.27878 | -75.78710 | 34232 ft | 485 kts | 118° |
| 2026-04-30 13:46 | 5.26404 | -75.75664 | 33844 ft | 485 kts | 118° |
| 2026-04-30 13:46 | 5.24932 | -75.72623 | 33465 ft | 484 kts | 117° |
| 2026-04-30 13:47 | 5.23482 | -75.69630 | 33094 ft | 482 kts | 117° |
| 2026-04-30 13:47 | 5.22016 | -75.66602 | 32736 ft | 481 kts | 117° |
| 2026-04-30 13:47 | 5.20556 | -75.63588 | 32374 ft | 479 kts | 117° |
| 2026-04-30 13:47 | 5.19100 | -75.60582 | 32008 ft | 478 kts | 117° |
| 2026-04-30 13:48 | 5.17647 | -75.57583 | 31604 ft | 478 kts | 117° |
| 2026-04-30 13:48 | 5.16197 | -75.54590 | 31214 ft | 477 kts | 117° |
| 2026-04-30 13:48 | 5.14747 | -75.51598 | 30822 ft | 476 kts | 116° |
| 2026-04-30 13:48 | 5.13248 | -75.48656 | 30416 ft | 470 kts | 122° |
| 2026-04-30 13:49 | 5.11365 | -75.46021 | 29942 ft | 457 kts | 129° |
| 2026-04-30 13:49 | 5.09396 | -75.43585 | 29484 ft | 443 kts | 130° |
| 2026-04-30 13:49 | 5.07450 | -75.41248 | 29040 ft | 430 kts | 130° |
| 2026-04-30 13:49 | 5.05570 | -75.38981 | 28595 ft | 418 kts | 130° |
| 2026-04-30 13:50 | 5.03773 | -75.36779 | 28170 ft | 410 kts | 129° |
| 2026-04-30 13:50 | 5.00199 | -75.32320 | 27338 ft | 409 kts | 128° |
| 2026-04-30 13:50 | 4.98430 | -75.30092 | 26920 ft | 405 kts | 128° |
| 2026-04-30 13:51 | 4.96684 | -75.27888 | 26505 ft | 402 kts | 128° |
| 2026-04-30 13:51 | 4.94946 | -75.25695 | 26109 ft | 399 kts | 128° |
| 2026-04-30 13:51 | 4.93228 | -75.23527 | 25708 ft | 395 kts | 128° |
| 2026-04-30 13:51 | 4.91523 | -75.21376 | 25316 ft | 393 kts | 128° |
| 2026-04-30 13:52 | 4.89825 | -75.19235 | 24920 ft | 390 kts | 128° |
| 2026-04-30 13:52 | 4.88141 | -75.17112 | 24525 ft | 387 kts | 128° |
| 2026-04-30 13:52 | 4.86494 | -75.15037 | 24156 ft | 385 kts | 128° |
| 2026-04-30 13:52 | 4.84834 | -75.12933 | 23787 ft | 382 kts | 125° |
| 2026-04-30 13:53 | 4.83571 | -75.10612 | 23317 ft | 379 kts | 108° |
| 2026-04-30 13:53 | 4.82920 | -75.08067 | 22916 ft | 376 kts | 102° |
| 2026-04-30 13:53 | 4.82398 | -75.05501 | 22484 ft | 374 kts | 101° |
| 2026-04-30 13:53 | 4.81899 | -75.02943 | 22052 ft | 373 kts | 101° |
| 2026-04-30 13:54 | 4.81391 | -75.00406 | 21645 ft | 371 kts | 102° |
| 2026-04-30 13:54 | 4.80870 | -74.97878 | 21279 ft | 367 kts | 102° |
| 2026-04-30 13:54 | 4.80346 | -74.95378 | 20912 ft | 364 kts | 102° |
| 2026-04-30 13:54 | 4.79823 | -74.92904 | 20581 ft | 361 kts | 102° |
| 2026-04-30 13:55 | 4.79302 | -74.90454 | 20272 ft | 357 kts | 102° |
| 2026-04-30 13:55 | 4.78787 | -74.88028 | 19969 ft | 354 kts | 102° |
| 2026-04-30 13:55 | 4.78274 | -74.85616 | 19673 ft | 352 kts | 102° |
| 2026-04-30 13:55 | 4.77771 | -74.83251 | 19372 ft | 350 kts | 102° |
| 2026-04-30 13:56 | 4.77269 | -74.80868 | 19080 ft | 348 kts | 100° |
| 2026-04-30 13:56 | 4.77198 | -74.78467 | 18764 ft | 344 kts | 82° |
| 2026-04-30 13:56 | 4.77837 | -74.76171 | 18501 ft | 341 kts | 71° |
| 2026-04-30 13:56 | 4.78682 | -74.73960 | 18179 ft | 338 kts | 70° |
| 2026-04-30 13:57 | 4.79552 | -74.71785 | 17857 ft | 334 kts | 69° |
| 2026-04-30 13:57 | 4.80416 | -74.69631 | 17527 ft | 331 kts | 70° |
| 2026-04-30 13:57 | 4.81260 | -74.67501 | 17205 ft | 327 kts | 70° |
| 2026-04-30 13:57 | 4.82089 | -74.65390 | 16886 ft | 324 kts | 70° |
| 2026-04-30 13:58 | 4.82904 | -74.63295 | 16579 ft | 321 kts | 70° |
| 2026-04-30 13:58 | 4.84508 | -74.59147 | 15969 ft | 317 kts | 70° |
| 2026-04-30 13:58 | 4.85303 | -74.57086 | 15673 ft | 315 kts | 70° |
| 2026-04-30 13:59 | 4.86091 | -74.55042 | 15366 ft | 313 kts | 71° |
| 2026-04-30 13:59 | 4.86874 | -74.53008 | 15084 ft | 312 kts | 71° |
| 2026-04-30 13:59 | 4.87653 | -74.50986 | 14782 ft | 310 kts | 71° |
| 2026-04-30 13:59 | 4.88381 | -74.49096 | 14498 ft | 308 kts | 71° |
| 2026-04-30 14:00 | 4.89150 | -74.47099 | 14219 ft | 306 kts | 71° |
| 2026-04-30 14:00 | 4.90569 | -74.43124 | 13611 ft | 299 kts | 84° |
| 2026-04-30 14:00 | 4.90472 | -74.41075 | 13300 ft | 293 kts | 105° |
| 2026-04-30 14:01 | 4.89651 | -74.39235 | 13071 ft | 286 kts | 124° |
| 2026-04-30 14:01 | 4.88481 | -74.37675 | 12986 ft | 276 kts | 131° |
| 2026-04-30 14:01 | 4.87235 | -74.36253 | 12926 ft | 265 kts | 130° |
| 2026-04-30 14:01 | 4.86096 | -74.34858 | 12894 ft | 261 kts | 128° |
| 2026-04-30 14:02 | 4.84986 | -74.33407 | 12673 ft | 265 kts | 127° |
| 2026-04-30 14:02 | 4.83872 | -74.31921 | 12388 ft | 268 kts | 127° |
| 2026-04-30 14:02 | 4.82750 | -74.30422 | 12038 ft | 268 kts | 127° |
| 2026-04-30 14:02 | 4.81649 | -74.28954 | 11727 ft | 258 kts | 127° |
| 2026-04-30 14:03 | 4.80607 | -74.27567 | 11390 ft | 239 kts | 127° |
| 2026-04-30 14:03 | 4.79652 | -74.26298 | 11116 ft | 218 kts | 127° |
| 2026-04-30 14:03 | 4.78781 | -74.25137 | 10861 ft | 198 kts | 127° |
| 2026-04-30 14:03 | 4.77985 | -74.24078 | 10627 ft | 181 kts | 127° |
| 2026-04-30 14:04 | 4.77248 | -74.23097 | 10476 ft | 172 kts | 127° |
| 2026-04-30 14:04 | 4.76546 | -74.22163 | 10232 ft | 162 kts | 127° |
| 2026-04-30 14:04 | 4.75878 | -74.21272 | 10026 ft | 159 kts | 126° |
| 2026-04-30 14:04 | 4.75211 | -74.20384 | 9813 ft | 161 kts | 127° |
| 2026-04-30 14:05 | 4.74535 | -74.19485 | 9593 ft | 167 kts | 127° |
| 2026-04-30 14:05 | 4.73830 | -74.18544 | 9361 ft | 170 kts | 127° |
| 2026-04-30 14:05 | 4.73122 | -74.17604 | 9121 ft | 167 kts | 127° |
| 2026-04-30 14:05 | 4.72438 | -74.16672 | 8815 ft | 164 kts | 124° |
| 2026-04-30 14:06 | 4.71771 | -74.15768 | 8542 ft | 159 kts | 127° |
| 2026-04-30 14:06 | 4.70556 | -74.14168 | 8366 ft | 114 kts | 127° |
| 2026-04-30 14:07 | 4.69982 | -74.13417 | 8367 ft | 24 kts | 128° |
| 2026-04-30 14:07 | 4.69854 | -74.13320 | 8367 ft | 23 kts | 164° |
| 2026-04-30 14:07 | 4.69728 | -74.13300 | 8367 ft | 17 kts | 172° |
| 2026-04-30 14:08 | 4.69707 | -74.13377 | 8367 ft | 8 kts | 307° |
| 2026-04-30 14:08 | 4.69740 | -74.13421 | 8367 ft | 9 kts | 307° |
| 2026-04-30 14:08 | 4.69849 | -74.13568 | 8367 ft | 15 kts | 307° |
| 2026-04-30 14:09 | 4.69911 | -74.13650 | 8367 ft | 14 kts | 307° |
| 2026-04-30 14:09 | 4.69970 | -74.13727 | 8367 ft | 14 kts | 308° |
| 2026-04-30 14:09 | 4.70082 | -74.13873 | 8367 ft | 13 kts | 307° |
| 2026-04-30 14:10 | 4.70132 | -74.13941 | 8366 ft | 10 kts | 300° |
| 2026-04-30 14:10 | 4.70100 | -74.13991 | 8366 ft | 9 kts | 209° |
| 2026-04-30 14:10 | 4.70042 | -74.14019 | 8366 ft | 9 kts | 192° |
| 2026-04-30 14:10 | 4.69984 | -74.14041 | 8366 ft | 9 kts | 216° |
| 2026-04-30 14:11 | 4.69947 | -74.14067 | 8366 ft | 0 kts | 216° |